createdAt,value
2018-07-19T00:00:25.965Z,99.90
2018-07-19T00:02:53.303Z,99.90
2018-07-19T00:05:20.686Z,99.90
2018-07-19T00:07:48.086Z,99.90
2018-07-19T00:10:15.504Z,99.90
2018-07-19T00:12:43.016Z,99.90
2018-07-19T00:15:10.384Z,99.90
2018-07-19T00:17:37.746Z,99.90
2018-07-19T00:20:05.704Z,99.90
2018-07-19T00:22:33.117Z,99.90
2018-07-19T00:25:00.649Z,99.90
2018-07-19T00:27:27.975Z,99.90
2018-07-19T00:29:55.372Z,99.90
2018-07-19T00:32:22.773Z,99.90
2018-07-19T00:34:50.296Z,99.90
2018-07-19T00:37:17.625Z,99.90
2018-07-19T00:39:44.953Z,99.90
2018-07-19T00:42:12.243Z,99.90
2018-07-19T00:44:39.741Z,99.90
2018-07-19T00:47:07.105Z,99.90
2018-07-19T00:49:34.525Z,99.90
2018-07-19T00:52:01.828Z,99.90
2018-07-19T00:54:29.145Z,99.90
2018-07-19T00:59:23.737Z,99.90
2018-07-19T01:01:51.048Z,99.90
2018-07-19T01:04:18.392Z,99.90
2018-07-19T01:06:46.016Z,99.90
2018-07-19T01:09:19.273Z,99.90
2018-07-19T01:11:46.562Z,99.90
2018-07-19T01:14:13.871Z,99.90
2018-07-19T01:16:41.270Z,99.90
2018-07-19T01:19:08.542Z,99.90
2018-07-19T01:21:35.844Z,99.90
2018-07-19T01:24:03.118Z,99.90
2018-07-19T01:26:30.455Z,99.90
2018-07-19T01:31:24.989Z,99.90
2018-07-19T01:36:19.697Z,99.90
2018-07-19T01:38:47.303Z,99.90
2018-07-19T01:43:47.529Z,99.90
2018-07-19T01:46:15.304Z,99.90
2018-07-19T01:48:42.893Z,99.90
2018-07-19T01:51:10.206Z,99.90
2018-07-19T01:53:37.460Z,99.90
2018-07-19T01:56:04.775Z,99.90
2018-07-19T01:58:32.760Z,99.90
2018-07-19T02:01:00.025Z,99.90
2018-07-19T02:03:27.312Z,99.90
2018-07-19T02:05:54.631Z,99.90
2018-07-19T02:08:21.948Z,99.90
2018-07-19T02:10:49.293Z,99.90
2018-07-19T02:13:16.577Z,99.90
2018-07-19T02:15:44.028Z,99.90
2018-07-19T02:23:06.064Z,99.90
2018-07-19T02:25:33.386Z,99.90
2018-07-19T02:28:00.793Z,99.90
2018-07-19T02:30:28.090Z,99.90
2018-07-19T02:32:55.399Z,99.90
2018-07-19T02:35:22.725Z,99.90
2018-07-19T02:37:50.034Z,99.90
2018-07-19T02:40:17.409Z,99.90
2018-07-19T02:42:44.846Z,99.90
2018-07-19T02:45:12.188Z,99.90
2018-07-19T02:47:39.540Z,99.90
2018-07-19T02:52:34.206Z,99.90
2018-07-19T02:55:01.569Z,99.90
2018-07-19T02:57:28.901Z,99.90
2018-07-19T02:59:56.181Z,99.90
2018-07-19T03:02:23.513Z,99.90
2018-07-19T03:04:50.928Z,99.90
2018-07-19T03:07:18.490Z,99.90
2018-07-19T03:09:45.761Z,99.90
2018-07-19T03:12:13.080Z,99.90
2018-07-19T03:14:40.562Z,99.90
2018-07-19T03:17:07.848Z,99.90
2018-07-19T03:19:35.143Z,99.90
2018-07-19T03:22:02.527Z,99.90
2018-07-19T03:24:29.833Z,99.90
2018-07-19T03:26:57.117Z,99.90
2018-07-19T03:29:24.375Z,99.90
2018-07-19T03:31:51.710Z,99.90
2018-07-19T03:34:19.010Z,99.90
2018-07-19T03:36:46.404Z,99.90
2018-07-19T03:39:13.709Z,99.90
2018-07-19T03:41:41.078Z,99.90
2018-07-19T03:44:08.400Z,99.90
2018-07-19T03:46:36.021Z,99.90
2018-07-19T03:49:03.296Z,99.90
2018-07-19T03:51:30.642Z,99.90
2018-07-19T03:53:57.982Z,99.90
2018-07-19T03:56:25.310Z,99.90
2018-07-19T03:58:52.624Z,99.90
2018-07-19T04:01:20.030Z,99.90
2018-07-19T04:03:47.437Z,99.90
2018-07-19T04:06:15.022Z,99.90
2018-07-19T04:08:42.372Z,99.90
2018-07-19T04:11:09.800Z,99.90
2018-07-19T04:13:37.198Z,99.90
2018-07-19T04:16:04.536Z,99.90
2018-07-19T04:18:31.837Z,99.90
2018-07-19T04:20:59.234Z,99.90
2018-07-19T04:23:26.556Z,99.90
2018-07-19T04:25:53.919Z,99.90
2018-07-19T04:28:21.295Z,99.90
2018-07-19T04:30:48.621Z,99.90
2018-07-19T04:33:15.902Z,99.90
2018-07-19T04:35:43.241Z,99.90
2018-07-19T04:38:10.660Z,99.90
2018-07-19T04:40:38.049Z,99.90
2018-07-19T04:43:06.006Z,99.90
2018-07-19T04:45:33.310Z,99.90
2018-07-19T04:48:00.771Z,99.90
2018-07-19T04:50:28.223Z,99.90
2018-07-19T04:52:55.526Z,99.90
2018-07-19T04:57:50.264Z,99.90
2018-07-19T05:00:17.666Z,99.90
2018-07-19T05:02:45.010Z,99.90
2018-07-19T05:05:12.380Z,99.90
2018-07-19T05:07:39.769Z,99.90
2018-07-19T05:10:07.103Z,99.90
2018-07-19T05:12:34.705Z,99.90
2018-07-19T05:15:02.035Z,99.90
2018-07-19T05:19:56.676Z,99.90
2018-07-19T05:24:51.256Z,99.90
2018-07-19T05:27:18.628Z,99.90
2018-07-19T05:29:45.963Z,99.90
2018-07-19T05:32:13.349Z,99.90
2018-07-19T05:34:40.739Z,99.90
2018-07-19T05:37:07.989Z,99.90
2018-07-19T05:39:35.305Z,99.90
2018-07-19T05:44:30.453Z,99.90
2018-07-19T05:49:25.332Z,99.90
2018-07-19T05:51:52.609Z,99.90
2018-07-19T05:54:20.159Z,99.90
2018-07-19T05:56:47.649Z,99.90
2018-07-19T05:59:14.989Z,99.90
2018-07-19T06:01:42.357Z,99.90
2018-07-19T06:04:09.716Z,99.90
2018-07-19T06:06:37.038Z,99.90
2018-07-19T06:09:06.829Z,99.90
2018-07-19T06:11:34.236Z,99.90
2018-07-19T06:14:01.641Z,99.90
2018-07-19T06:16:28.962Z,99.90
2018-07-19T06:18:56.442Z,99.90
2018-07-19T06:21:23.797Z,99.90
2018-07-19T06:23:52.090Z,99.90
2018-07-19T06:26:19.408Z,99.90
2018-07-19T06:28:47.246Z,99.90
2018-07-19T06:31:14.573Z,99.90
2018-07-19T06:33:42.042Z,99.90
2018-07-19T06:36:09.461Z,99.90
2018-07-19T06:38:36.843Z,99.90
2018-07-19T06:43:31.718Z,99.90
2018-07-19T06:45:59.046Z,99.90
2018-07-19T06:48:26.426Z,99.90
2018-07-19T06:50:53.697Z,99.90
2018-07-19T06:53:21.013Z,99.90
2018-07-19T06:55:49.059Z,99.90
2018-07-19T06:58:16.502Z,99.90
2018-07-19T07:00:43.820Z,99.90
2018-07-19T07:03:11.298Z,99.90
2018-07-19T07:05:38.761Z,99.90
2018-07-19T07:08:06.174Z,99.90
2018-07-19T07:13:00.875Z,99.90
2018-07-19T07:15:28.241Z,99.90
2018-07-19T07:17:55.569Z,99.90
2018-07-19T07:20:22.869Z,99.90
2018-07-19T07:22:50.620Z,99.90
2018-07-19T07:25:18.245Z,99.90
2018-07-19T07:27:45.674Z,99.90
2018-07-19T07:30:13.078Z,99.90
2018-07-19T07:32:40.426Z,99.90
2018-07-19T07:35:08.337Z,99.90
2018-07-19T07:37:35.706Z,99.90
2018-07-19T07:40:03.687Z,99.90
2018-07-19T07:42:31.150Z,99.90
2018-07-19T07:44:58.532Z,99.90
2018-07-19T07:47:25.903Z,99.90
2018-07-19T07:49:53.244Z,99.90
2018-07-19T07:52:20.570Z,99.90
2018-07-19T07:54:48.545Z,99.90
2018-07-19T07:57:15.905Z,99.90
2018-07-19T08:02:10.768Z,99.90
2018-07-19T08:04:38.483Z,99.90
2018-07-19T08:07:05.794Z,99.90
2018-07-19T08:09:33.269Z,99.90
2018-07-19T08:12:00.644Z,99.90
2018-07-19T08:14:27.978Z,99.90
2018-07-19T08:19:22.581Z,99.90
2018-07-19T08:21:50.226Z,99.90
2018-07-19T08:24:17.644Z,99.90
2018-07-19T08:26:44.970Z,99.90
2018-07-19T08:29:12.438Z,99.90
2018-07-19T08:31:39.926Z,99.90
2018-07-19T08:34:07.329Z,99.90
2018-07-19T08:36:35.154Z,99.90
2018-07-19T08:39:02.614Z,99.90
2018-07-19T08:41:30.275Z,99.90
2018-07-19T08:43:59.668Z,99.90
2018-07-19T08:48:54.452Z,99.90
2018-07-19T08:51:21.745Z,99.90
2018-07-19T08:53:49.037Z,99.90
2018-07-19T08:58:44.369Z,99.90
2018-07-19T09:01:11.688Z,99.90
2018-07-19T09:03:39.141Z,99.90
2018-07-19T09:06:06.505Z,99.90
2018-07-19T09:11:01.291Z,99.90
2018-07-19T09:13:28.620Z,99.90
2018-07-19T09:15:56.026Z,99.90
2018-07-19T09:18:23.352Z,99.90
2018-07-19T09:20:50.982Z,99.90
2018-07-19T09:23:18.546Z,99.90
2018-07-19T09:25:45.929Z,99.90
2018-07-19T09:28:13.251Z,99.90
2018-07-19T09:30:40.674Z,99.90
2018-07-19T09:33:08.019Z,99.90
2018-07-19T09:35:35.628Z,99.90
2018-07-19T09:40:30.298Z,99.90
2018-07-19T09:42:57.617Z,99.90
2018-07-19T09:45:25.049Z,99.90
2018-07-19T09:47:52.388Z,99.90
2018-07-19T09:50:19.689Z,99.90
2018-07-19T09:52:47.021Z,99.90
2018-07-19T09:55:14.437Z,99.90
2018-07-19T09:57:41.744Z,99.90
2018-07-19T10:02:36.301Z,99.90
2018-07-19T10:05:03.721Z,99.90
2018-07-19T10:07:30.965Z,99.90
2018-07-19T10:09:58.232Z,99.90
2018-07-19T10:12:25.521Z,99.90
2018-07-19T10:14:52.804Z,99.90
2018-07-19T10:19:47.521Z,99.90
2018-07-19T10:22:14.857Z,99.90
2018-07-19T10:24:42.333Z,99.90
2018-07-19T10:27:09.645Z,99.90
2018-07-19T10:32:04.258Z,99.90
2018-07-19T10:34:31.464Z,99.90
2018-07-19T10:36:58.697Z,99.90
2018-07-19T10:39:25.974Z,99.90
2018-07-19T10:44:20.693Z,99.90
2018-07-19T10:46:47.960Z,99.90
2018-07-19T10:49:15.221Z,99.90
2018-07-19T10:51:42.492Z,99.90
2018-07-19T10:54:09.784Z,99.90
2018-07-19T10:59:05.044Z,99.90
2018-07-19T11:01:32.320Z,99.90
2018-07-19T11:03:59.620Z,99.90
2018-07-19T11:06:26.889Z,99.90
2018-07-19T11:08:54.143Z,99.90
2018-07-19T11:11:21.408Z,99.90
2018-07-19T11:13:50.454Z,99.90
2018-07-19T11:16:17.717Z,99.90
2018-07-19T11:18:44.964Z,99.90
2018-07-19T11:21:12.220Z,99.90
2018-07-19T11:23:39.495Z,99.90
2018-07-19T11:26:06.744Z,99.90
2018-07-19T11:28:34.069Z,99.90
2018-07-19T11:33:28.798Z,99.80
2018-07-19T11:35:56.118Z,97.10
2018-07-19T11:38:23.357Z,97.10
2018-07-19T11:40:50.645Z,97.80
2018-07-19T11:43:17.884Z,97.50
2018-07-19T11:45:45.416Z,97.20
2018-07-19T11:48:12.777Z,97.70
2018-07-19T11:50:40.033Z,98.00
2018-07-19T11:53:07.337Z,99.40
2018-07-19T11:58:01.915Z,97.50
2018-07-19T12:00:29.257Z,98.70
2018-07-19T12:02:56.496Z,99.00
2018-07-19T12:07:51.016Z,98.80
2018-07-19T12:10:18.297Z,98.90
2018-07-19T12:15:12.953Z,97.70
2018-07-19T12:17:40.219Z,98.10
2018-07-19T12:20:07.985Z,98.70
2018-07-19T12:22:35.260Z,98.90
2018-07-19T12:25:02.568Z,98.30
2018-07-19T12:27:29.821Z,98.20
2018-07-19T12:29:57.077Z,97.90
2018-07-19T12:32:24.341Z,98.00
2018-07-19T12:34:51.787Z,96.50
2018-07-19T12:37:19.090Z,96.50
2018-07-19T12:39:46.428Z,96.80
2018-07-19T12:42:13.700Z,98.00
2018-07-19T12:44:40.969Z,98.30
2018-07-19T12:47:08.350Z,98.30
2018-07-19T12:49:35.748Z,98.00
2018-07-19T12:52:03.249Z,99.50
2018-07-19T12:54:30.633Z,97.30
2018-07-19T12:56:58.032Z,98.30
2018-07-19T12:59:25.401Z,97.30
2018-07-19T13:01:52.705Z,96.40
2018-07-19T13:04:20.025Z,98.20
2018-07-19T13:06:47.556Z,98.10
2018-07-19T13:11:42.257Z,97.20
2018-07-19T13:14:09.645Z,97.40
2018-07-19T13:16:36.944Z,96.70
2018-07-19T13:19:04.276Z,96.80
2018-07-19T13:21:31.739Z,96.50
2018-07-19T13:23:59.083Z,97.40
2018-07-19T13:26:26.396Z,97.40
2018-07-19T13:28:53.806Z,96.70
2018-07-19T13:31:21.164Z,95.60
2018-07-19T13:33:48.484Z,96.50
2018-07-19T13:36:15.797Z,95.50
2018-07-19T13:38:43.084Z,95.50
2018-07-19T13:41:10.377Z,95.10
2018-07-19T13:43:37.645Z,95.60
2018-07-19T13:46:05.069Z,97.30
2018-07-19T13:48:32.321Z,97.20
2018-07-19T13:50:59.621Z,96.90
2018-07-19T13:53:39.547Z,96.90
2018-07-19T13:56:07.494Z,95.90
2018-07-19T13:58:35.509Z,96.10
2018-07-19T14:01:02.931Z,95.50
2018-07-19T14:03:30.658Z,96.40
2018-07-19T14:05:57.991Z,96.80
2018-07-19T14:08:25.283Z,97.80
2018-07-19T14:15:47.465Z,98.40
2018-07-19T14:18:15.481Z,97.10
2018-07-19T14:20:42.956Z,95.00
2018-07-19T14:23:10.457Z,95.10
2018-07-19T14:25:37.914Z,95.30
2018-07-19T14:28:05.534Z,95.20
2018-07-19T14:30:32.931Z,94.90
2018-07-19T14:33:00.333Z,94.40
2018-07-19T14:35:27.827Z,95.10
2018-07-19T14:37:55.214Z,94.70
2018-07-19T14:40:22.685Z,95.00
2018-07-19T14:42:50.184Z,95.50
2018-07-19T14:45:17.921Z,94.60
2018-07-19T14:47:45.234Z,94.20
2018-07-19T14:50:13.050Z,95.30
2018-07-19T14:52:40.350Z,95.00
2018-07-19T14:55:08.170Z,94.40
2018-07-19T14:57:35.498Z,94.40
2018-07-19T15:02:30.169Z,94.90
2018-07-19T15:04:57.884Z,95.30
2018-07-19T15:07:25.237Z,94.40
2018-07-19T15:09:52.460Z,93.70
2018-07-19T15:12:20.045Z,93.60
2018-07-19T15:14:50.879Z,94.60
2018-07-19T15:17:18.350Z,94.50
2018-07-19T15:19:45.794Z,94.20
2018-07-19T15:22:13.128Z,94.30
2018-07-19T15:24:40.845Z,94.90
2018-07-19T15:27:08.233Z,95.20
2018-07-19T15:29:35.598Z,94.90
2018-07-19T15:32:03.061Z,94.60
2018-07-19T15:34:30.425Z,94.70
2018-07-19T15:36:57.846Z,95.70
2018-07-19T15:39:26.145Z,95.10
2018-07-19T15:41:53.537Z,94.00
2018-07-19T15:44:21.113Z,94.40
2018-07-19T15:46:49.349Z,94.20
2018-07-19T15:49:16.796Z,94.10
2018-07-19T15:51:44.170Z,93.80
2018-07-19T15:54:11.493Z,94.30
2018-07-19T15:56:38.877Z,94.30
2018-07-19T15:59:06.242Z,93.50
2018-07-19T16:01:33.621Z,94.10
2018-07-19T16:04:00.958Z,94.50
2018-07-19T16:06:28.362Z,93.60
2018-07-19T16:08:55.746Z,94.00
2018-07-19T16:11:23.084Z,93.30
2018-07-19T16:16:18.674Z,92.70
2018-07-19T16:18:46.033Z,92.90
2018-07-19T16:21:13.373Z,93.10
2018-07-19T16:23:40.776Z,92.80
2018-07-19T16:26:08.141Z,92.20
2018-07-19T16:28:35.477Z,92.10
2018-07-19T16:33:30.286Z,92.30
2018-07-19T16:35:57.772Z,92.40
2018-07-19T16:38:25.930Z,92.10
2018-07-19T16:40:53.333Z,92.00
2018-07-19T16:43:21.276Z,92.00
2018-07-19T16:45:49.014Z,92.10
2018-07-19T16:48:16.350Z,92.10
2018-07-19T16:50:44.125Z,91.90
2018-07-19T16:53:11.541Z,92.20
2018-07-19T16:55:38.862Z,91.70
2018-07-19T16:58:06.190Z,91.80
2018-07-19T17:00:33.517Z,91.70
2018-07-19T17:03:00.849Z,91.40
2018-07-19T17:05:28.344Z,91.50
2018-07-19T17:07:55.641Z,91.00
2018-07-19T17:10:23.053Z,91.10
2018-07-19T17:12:50.709Z,90.90
2018-07-19T17:15:18.390Z,91.40
2018-07-19T17:17:45.797Z,91.80
2018-07-19T17:20:14.375Z,92.30
2018-07-19T17:22:41.664Z,91.50
2018-07-19T17:25:09.238Z,91.20
2018-07-19T17:27:36.653Z,91.10
2018-07-19T17:30:04.610Z,91.00
2018-07-19T17:32:32.102Z,91.10
2018-07-19T17:34:59.393Z,91.10
2018-07-19T17:37:26.690Z,91.10
2018-07-19T17:39:54.021Z,91.30
2018-07-19T17:42:21.582Z,91.30
2018-07-19T17:44:49.769Z,91.30
2018-07-19T17:47:17.076Z,91.10
2018-07-19T17:52:11.641Z,91.10
2018-07-19T17:54:39.262Z,91.10
2018-07-19T17:57:06.729Z,91.20
2018-07-19T17:59:34.040Z,90.80
2018-07-19T18:06:56.268Z,90.40
2018-07-19T18:09:23.521Z,90.40
2018-07-19T18:11:50.888Z,90.30
2018-07-19T18:14:18.244Z,90.30
2018-07-19T18:16:45.644Z,90.40
2018-07-19T18:19:12.956Z,90.50
2018-07-19T18:21:40.372Z,90.20
2018-07-19T18:24:07.697Z,90.20
2018-07-19T18:26:35.009Z,90.10
2018-07-19T18:29:02.292Z,89.70
2018-07-19T18:31:29.562Z,90.20
2018-07-19T18:33:56.813Z,90.20
2018-07-19T18:36:24.069Z,90.40
2018-07-19T18:38:52.473Z,90.70
2018-07-19T18:41:20.381Z,90.40
2018-07-19T18:43:47.667Z,90.60
2018-07-19T18:48:42.273Z,91.10
2018-07-19T18:51:09.557Z,92.10
2018-07-19T18:53:36.832Z,92.90
2018-07-19T18:56:04.134Z,93.90
2018-07-19T18:58:31.390Z,94.10
2018-07-19T19:00:58.695Z,95.50
2018-07-19T19:03:26.020Z,95.40
2018-07-19T19:05:53.302Z,95.70
2018-07-19T19:08:20.573Z,95.70
2018-07-19T19:10:47.900Z,95.40
2018-07-19T19:15:42.412Z,96.10
2018-07-19T19:18:09.674Z,96.40
2018-07-19T19:20:37.049Z,96.50
2018-07-19T19:23:04.520Z,97.10
2018-07-19T19:25:31.846Z,97.20
2018-07-19T19:27:59.149Z,97.80
2018-07-19T19:30:26.524Z,97.20
2018-07-19T19:32:53.785Z,98.30
2018-07-19T19:35:21.093Z,98.60
2018-07-19T19:37:48.672Z,98.50
2018-07-19T19:40:16.022Z,98.60
2018-07-19T19:42:43.337Z,99.00
2018-07-19T19:45:10.614Z,99.10
2018-07-19T19:47:37.900Z,99.60
2018-07-19T19:50:05.148Z,98.70
2018-07-19T19:52:32.412Z,97.80
2018-07-19T19:54:59.693Z,98.00
2018-07-19T19:57:26.985Z,97.90
2018-07-19T19:59:55.262Z,98.30
2018-07-19T20:02:23.650Z,98.20
2018-07-19T20:04:50.933Z,97.90
2018-07-19T20:07:18.306Z,98.10
2018-07-19T20:09:45.674Z,98.20
2018-07-19T20:12:14.149Z,97.80
2018-07-19T20:14:41.536Z,97.30
2018-07-19T20:17:09.482Z,97.10
2018-07-19T20:19:36.712Z,97.70
2018-07-19T20:22:04.033Z,97.50
2018-07-19T20:26:58.537Z,98.30
2018-07-19T20:29:25.813Z,99.30
2018-07-19T20:34:20.681Z,99.90
2018-07-19T20:36:47.830Z,99.90
2018-07-19T20:39:15.110Z,99.90
2018-07-19T20:41:42.449Z,99.90
2018-07-19T20:46:37.035Z,99.90
2018-07-19T20:49:04.320Z,99.90
2018-07-19T20:51:31.549Z,99.90
2018-07-19T20:53:58.846Z,99.90
2018-07-19T20:56:26.135Z,99.90
2018-07-19T20:58:53.404Z,99.90
2018-07-19T21:01:20.869Z,99.90
2018-07-19T21:03:48.216Z,99.90
2018-07-19T21:06:15.527Z,99.90
2018-07-19T21:08:42.778Z,99.90
2018-07-19T21:11:10.036Z,99.90
2018-07-19T21:13:37.373Z,99.90
2018-07-19T21:16:04.741Z,99.90
2018-07-19T21:18:32.013Z,99.90
2018-07-19T21:20:59.289Z,99.90
2018-07-19T21:23:26.554Z,99.90
2018-07-19T21:25:53.809Z,99.90
2018-07-19T21:28:21.089Z,99.90
2018-07-19T21:30:48.552Z,99.90
2018-07-19T21:33:15.783Z,99.90
2018-07-19T21:35:45.194Z,99.90
2018-07-19T21:38:12.480Z,99.90
2018-07-19T21:40:39.757Z,99.90
2018-07-19T21:43:07.031Z,99.90
2018-07-19T21:45:34.309Z,99.90
2018-07-19T21:48:01.604Z,99.90
2018-07-19T21:50:28.885Z,99.90
2018-07-19T21:52:56.200Z,99.90
2018-07-19T21:55:23.528Z,99.90
2018-07-19T21:57:52.438Z,99.90
2018-07-19T22:00:19.794Z,99.90
2018-07-19T22:02:47.177Z,99.90
2018-07-19T22:05:14.662Z,99.90
2018-07-19T22:07:42.001Z,99.90
2018-07-19T22:10:09.410Z,99.90
2018-07-19T22:12:36.839Z,99.90
2018-07-19T22:15:05.599Z,99.90
2018-07-19T22:17:32.970Z,99.90
2018-07-19T22:20:00.281Z,99.90
2018-07-19T22:22:27.646Z,99.90
2018-07-19T22:24:55.064Z,99.90
2018-07-19T22:27:22.405Z,99.90
2018-07-19T22:29:49.721Z,99.90
2018-07-19T22:34:49.469Z,99.90
2018-07-19T22:37:16.764Z,99.90
2018-07-19T22:39:44.068Z,99.90
2018-07-19T22:42:11.357Z,99.90
2018-07-19T22:44:38.626Z,99.90
2018-07-19T22:47:06.011Z,99.90
2018-07-19T22:52:00.573Z,99.90
2018-07-19T22:54:27.828Z,99.90
2018-07-19T22:56:55.081Z,99.90
2018-07-19T22:59:23.446Z,99.90
2018-07-19T23:01:50.738Z,99.90
2018-07-19T23:04:17.986Z,99.90
2018-07-19T23:06:45.273Z,99.90
2018-07-19T23:09:12.541Z,99.90
2018-07-19T23:11:39.833Z,99.90
2018-07-19T23:14:09.269Z,99.90
2018-07-19T23:16:36.613Z,99.90
2018-07-19T23:19:03.863Z,99.90
2018-07-19T23:21:31.130Z,99.90
2018-07-19T23:23:58.372Z,99.90
2018-07-19T23:26:25.749Z,99.90
2018-07-19T23:28:53.052Z,99.90
2018-07-19T23:31:20.447Z,99.90
2018-07-19T23:33:47.866Z,99.90
2018-07-19T23:36:18.450Z,99.90
2018-07-19T23:38:50.095Z,99.90
2018-07-19T23:41:22.521Z,99.90
2018-07-19T23:43:53.543Z,99.90
2018-07-19T23:46:26.412Z,99.90
2018-07-19T23:48:54.902Z,99.90
2018-07-19T23:51:22.193Z,99.90
2018-07-19T23:53:49.456Z,99.90
2018-07-19T23:56:16.853Z,99.90
2018-07-19T23:58:44.113Z,99.90
